Montreal (YUL/CYUL)

Information

Location
Montreal, QB, Canada
Local Time
18:24 / 6:24 pm
GMT Time
23:24 / 11:24 pm
Gates
77
No FAA reported delays
METAR CYUL 182300Z 25010KT 12SM -SN BKN045 OVC090 M05/M07 A2991 RMK SC6AC2 SLP133
TAF TAF CYUL 182038Z 1821/1918 24010G20KT P6SM FEW020 OVC040 TEMPO 1821/1823 P6SM -SN BKN020 BECMG 1900/1902 24010KT FM190600 24010KT P6SM -SN OVC030 BECMG 1916/1918 24010G20KT RMK NXT FCST BY 190000Z